createdAt,value
2017-11-28T00:01:40.943Z,3.58
2017-11-28T00:04:08.361Z,2.80
2017-11-28T00:06:35.803Z,2.42
2017-11-28T00:09:03.228Z,2.72
2017-11-28T00:11:30.670Z,2.67
2017-11-28T00:13:58.910Z,2.75
2017-11-28T00:16:27.112Z,2.40
2017-11-28T00:18:54.541Z,2.50
2017-11-28T00:21:22.783Z,15.70
2017-11-28T00:23:50.215Z,2.40
2017-11-28T00:26:17.637Z,3.22
2017-11-28T00:28:45.077Z,2.25
2017-11-28T00:31:12.503Z,3.25
2017-11-28T00:33:39.946Z,2.30
2017-11-28T00:36:07.378Z,2.53
2017-11-28T00:38:34.817Z,2.75
2017-11-28T00:41:03.008Z,2.90
2017-11-28T00:43:30.446Z,4.20
2017-11-28T00:45:57.880Z,2.83
2017-11-28T00:48:25.310Z,3.08
2017-11-28T00:50:52.763Z,2.87
2017-11-28T00:53:20.194Z,2.87
2017-11-28T00:55:47.635Z,2.83
2017-11-28T00:58:15.058Z,2.10
2017-11-28T01:00:42.523Z,2.83
2017-11-28T01:03:09.942Z,4.45
2017-11-28T01:05:37.394Z,2.40
2017-11-28T01:08:04.828Z,2.70
2017-11-28T01:10:32.274Z,2.35
2017-11-28T01:13:00.455Z,2.55
2017-11-28T01:15:27.891Z,2.47
2017-11-28T01:17:55.309Z,2.53
2017-11-28T01:20:22.750Z,2.60
2017-11-28T01:22:50.185Z,2.55
2017-11-28T01:25:17.611Z,2.58
2017-11-28T01:27:45.810Z,2.62
2017-11-28T01:30:13.234Z,2.33
2017-11-28T01:32:40.668Z,2.95
2017-11-28T01:35:08.094Z,3.33
2017-11-28T01:37:35.524Z,3.00
2017-11-28T01:40:02.957Z,2.72
2017-11-28T01:42:31.158Z,2.92
2017-11-28T01:44:59.493Z,3.50
2017-11-28T01:47:26.934Z,2.50
2017-11-28T01:49:54.361Z,2.53
2017-11-28T01:52:21.803Z,3.20
2017-11-28T01:54:49.222Z,2.50
2017-11-28T01:57:16.666Z,2.80
2017-11-28T01:59:44.098Z,3.00
2017-11-28T02:02:11.542Z,2.50
2017-11-28T02:04:38.983Z,2.55
2017-11-28T02:07:06.405Z,2.92
2017-11-28T02:09:34.014Z,2.65
2017-11-28T02:12:01.437Z,3.00
2017-11-28T02:14:29.651Z,2.60
2017-11-28T02:16:57.074Z,2.25
2017-11-28T02:19:24.510Z,2.40
2017-11-28T02:21:51.943Z,2.42
2017-11-28T02:24:19.384Z,2.30
2017-11-28T02:26:46.808Z,2.72
2017-11-28T02:29:14.247Z,2.70
2017-11-28T02:31:42.456Z,2.20
2017-11-28T02:34:09.882Z,2.80
2017-11-28T02:36:37.309Z,1.92
2017-11-28T02:39:04.761Z,1.75
2017-11-28T02:41:32.194Z,2.30
2017-11-28T02:44:05.263Z,2.20
2017-11-28T02:46:32.670Z,2.47
2017-11-28T02:51:54.601Z,2.03
2017-11-28T02:54:22.033Z,2.62
2017-11-28T02:56:49.455Z,2.10
2017-11-28T02:59:16.881Z,2.30
2017-11-28T03:01:47.924Z,2.75
2017-11-28T03:04:15.354Z,2.20
2017-11-28T03:06:42.791Z,2.37
2017-11-28T03:09:12.654Z,1.90
2017-11-28T03:11:40.070Z,2.30
2017-11-28T03:14:10.222Z,2.10
2017-11-28T03:16:38.649Z,2.53
2017-11-28T03:19:10.495Z,3.15
2017-11-28T03:21:37.961Z,2.30
2017-11-28T03:26:59.927Z,2.60
2017-11-28T03:29:37.746Z,2.22
2017-11-28T03:32:05.171Z,2.40
2017-11-28T03:34:32.595Z,2.12
2017-11-28T03:37:00.043Z,1.98
2017-11-28T03:39:28.233Z,1.98
2017-11-28T03:41:55.669Z,2.40
2017-11-28T03:47:15.530Z,1.90
2017-11-28T03:49:42.946Z,2.25
2017-11-28T03:52:10.372Z,2.30
2017-11-28T03:54:37.810Z,2.03
2017-11-28T03:57:05.226Z,1.87
2017-11-28T03:59:32.657Z,2.30
2017-11-28T04:02:00.094Z,2.12
2017-11-28T04:04:28.293Z,2.17
2017-11-28T04:06:55.726Z,1.92
2017-11-28T04:09:23.163Z,2.05
2017-11-28T04:11:50.596Z,2.15
2017-11-28T04:14:18.042Z,2.10
2017-11-28T04:16:45.999Z,2.00
2017-11-28T04:19:13.489Z,2.72
2017-11-28T04:21:40.938Z,2.60
2017-11-28T04:24:08.372Z,2.70
2017-11-28T04:26:35.806Z,2.42
2017-11-28T04:29:03.236Z,2.05
2017-11-28T04:31:30.670Z,2.20
2017-11-28T04:33:58.100Z,3.28
2017-11-28T04:36:25.536Z,2.55
2017-11-28T04:38:53.730Z,2.15
2017-11-28T04:41:21.202Z,2.92
2017-11-28T04:43:48.631Z,2.28
2017-11-28T04:46:16.060Z,2.30
2017-11-28T04:48:43.494Z,2.05
2017-11-28T04:51:10.923Z,2.22
2017-11-28T04:53:38.355Z,1.50
2017-11-28T04:56:05.787Z,1.90
2017-11-28T04:58:33.217Z,1.90
2017-11-28T05:03:33.489Z,1.87
2017-11-28T05:06:00.911Z,1.70
2017-11-28T05:08:28.596Z,1.60
2017-11-28T05:10:56.013Z,2.00
2017-11-28T05:13:23.431Z,1.50
2017-11-28T05:15:50.866Z,1.50
2017-11-28T05:18:18.403Z,1.40
2017-11-28T05:20:45.836Z,2.08
2017-11-28T05:23:13.257Z,2.50
2017-11-28T05:25:40.690Z,1.95
2017-11-28T05:28:08.127Z,1.70
2017-11-28T05:30:36.332Z,1.85
2017-11-28T05:33:03.763Z,2.50
2017-11-28T05:35:31.213Z,1.60
2017-11-28T05:37:58.618Z,2.35
2017-11-28T05:40:26.068Z,1.50
2017-11-28T05:42:53.497Z,1.48
2017-11-28T05:45:21.678Z,1.70
2017-11-28T05:47:49.116Z,1.60
2017-11-28T05:50:16.538Z,1.55
2017-11-28T05:52:43.965Z,1.50
2017-11-28T05:55:11.398Z,1.60
2017-11-28T05:57:38.839Z,1.67
2017-11-28T06:00:07.026Z,2.30
2017-11-28T06:02:34.457Z,1.40
2017-11-28T06:05:02.646Z,2.20
2017-11-28T06:07:30.095Z,2.10
2017-11-28T06:09:57.505Z,2.00
2017-11-28T06:12:25.723Z,1.98
2017-11-28T06:14:53.911Z,2.50
2017-11-28T06:17:21.357Z,2.03
2017-11-28T06:19:48.778Z,1.75
2017-11-28T06:22:16.199Z,1.98
2017-11-28T06:24:43.642Z,2.15
2017-11-28T06:27:11.069Z,1.70
2017-11-28T06:29:39.274Z,2.05
2017-11-28T06:32:06.697Z,1.35
2017-11-28T06:34:35.206Z,2.33
2017-11-28T06:37:02.626Z,1.60
2017-11-28T06:39:31.737Z,3.30
2017-11-28T06:41:59.927Z,2.00
2017-11-28T06:44:27.361Z,1.60
2017-11-28T06:46:54.777Z,2.40
2017-11-28T06:49:22.220Z,2.20
2017-11-28T06:51:49.724Z,1.80
2017-11-28T06:54:17.150Z,2.10
2017-11-28T06:56:50.359Z,2.33
2017-11-28T06:59:17.786Z,2.20
2017-11-28T07:01:45.215Z,2.10
2017-11-28T07:04:12.639Z,2.30
2017-11-28T07:06:41.235Z,1.95
2017-11-28T07:09:08.666Z,2.00
2017-11-28T07:11:36.097Z,2.17
2017-11-28T07:14:03.517Z,1.83
2017-11-28T07:16:30.954Z,2.03
2017-11-28T07:18:59.142Z,2.30
2017-11-28T07:21:26.581Z,2.10
2017-11-28T07:23:54.774Z,2.08
2017-11-28T07:26:22.199Z,2.45
2017-11-28T07:28:49.621Z,1.70
2017-11-28T07:31:17.079Z,1.80
2017-11-28T07:33:44.511Z,2.00
2017-11-28T07:36:11.937Z,2.20
2017-11-28T07:38:39.377Z,2.17
2017-11-28T07:41:06.808Z,1.67
2017-11-28T07:43:34.234Z,1.60
2017-11-28T07:46:01.649Z,1.90
2017-11-28T07:48:29.854Z,1.70
2017-11-28T07:50:57.286Z,2.10
2017-11-28T07:53:24.729Z,1.67
2017-11-28T07:55:52.155Z,1.70
2017-11-28T07:58:19.594Z,1.50
2017-11-28T08:00:47.014Z,1.80
2017-11-28T08:03:15.220Z,2.53
2017-11-28T08:05:42.636Z,1.60
2017-11-28T08:08:10.091Z,1.80
2017-11-28T08:10:37.528Z,1.60
2017-11-28T08:13:04.947Z,3.58
2017-11-28T08:15:32.387Z,1.90
2017-11-28T08:17:59.816Z,1.65
2017-11-28T08:20:28.005Z,2.22
2017-11-28T08:22:55.432Z,1.85
2017-11-28T08:25:22.875Z,1.65
2017-11-28T08:27:50.294Z,1.50
2017-11-28T08:30:17.723Z,1.50
2017-11-28T08:32:45.150Z,1.70
2017-11-28T08:35:12.606Z,1.80
2017-11-28T08:37:40.043Z,1.60
2017-11-28T08:40:07.475Z,1.90
2017-11-28T08:42:34.918Z,1.75
2017-11-28T08:45:02.344Z,1.55
2017-11-28T08:47:29.776Z,1.40
2017-11-28T08:49:57.202Z,1.35
2017-11-28T08:52:24.642Z,3.25
2017-11-28T08:54:52.074Z,3.50
2017-11-28T08:57:19.519Z,3.50
2017-11-28T08:59:46.948Z,3.72
2017-11-28T09:02:14.395Z,3.60
2017-11-28T09:04:41.821Z,2.10
2017-11-28T09:07:09.259Z,2.70
2017-11-28T09:09:37.459Z,2.58
2017-11-28T09:12:04.881Z,2.30
2017-11-28T09:14:33.073Z,1.62
2017-11-28T09:17:00.561Z,1.80
2017-11-28T09:19:28.008Z,2.15
2017-11-28T09:21:55.434Z,2.30
2017-11-28T09:24:22.854Z,2.00
2017-11-28T09:26:50.285Z,2.20
2017-11-28T09:29:17.720Z,1.80
2017-11-28T09:31:45.146Z,1.80
2017-11-28T09:34:12.586Z,1.92
2017-11-28T09:36:40.011Z,1.85
2017-11-28T09:39:07.447Z,1.42
2017-11-28T09:41:34.867Z,1.77
2017-11-28T09:44:03.083Z,1.73
2017-11-28T09:46:30.490Z,1.55
2017-11-28T09:48:57.943Z,2.00
2017-11-28T09:51:25.355Z,2.20
2017-11-28T09:53:52.785Z,2.62
2017-11-28T09:56:20.226Z,1.87
2017-11-28T09:58:48.414Z,2.20
2017-11-28T10:01:15.845Z,2.12
2017-11-28T10:03:43.271Z,2.15
2017-11-28T10:06:10.710Z,1.60
2017-11-28T10:08:38.125Z,1.52
2017-11-28T10:11:05.567Z,1.87
2017-11-28T10:13:33.753Z,1.70
2017-11-28T10:16:01.183Z,2.00
2017-11-28T10:18:28.619Z,2.20
2017-11-28T10:20:56.040Z,2.28
2017-11-28T10:23:23.475Z,2.70
2017-11-28T10:25:51.660Z,2.90
2017-11-28T10:28:19.094Z,1.70
2017-11-28T10:30:46.521Z,2.03
2017-11-28T10:33:13.973Z,3.00
2017-11-28T10:35:41.407Z,2.60
2017-11-28T10:38:08.841Z,2.53
2017-11-28T10:40:36.264Z,5.12
2017-11-28T10:43:03.705Z,3.65
2017-11-28T10:45:31.130Z,3.78
2017-11-28T10:47:58.579Z,3.60
2017-11-28T10:50:26.007Z,4.75
2017-11-28T10:52:53.436Z,5.70
2017-11-28T10:55:20.880Z,5.78
2017-11-28T10:57:48.307Z,4.00
2017-11-28T11:00:16.137Z,2.75
2017-11-28T11:02:43.559Z,2.58
2017-11-28T11:05:10.989Z,2.30
2017-11-28T11:07:38.417Z,2.78
2017-11-28T11:10:05.863Z,2.75
2017-11-28T11:12:33.288Z,2.00
2017-11-28T11:15:00.722Z,2.22
2017-11-28T11:17:28.164Z,2.00
2017-11-28T11:19:55.585Z,2.07
2017-11-28T11:22:23.019Z,2.27
2017-11-28T11:24:50.462Z,2.30
2017-11-28T11:27:17.894Z,2.42
2017-11-28T11:29:45.337Z,2.67
2017-11-28T11:32:12.762Z,2.70
2017-11-28T11:34:40.182Z,2.30
2017-11-28T11:37:07.616Z,3.57
2017-11-28T11:39:35.805Z,3.07
2017-11-28T11:42:03.251Z,3.50
2017-11-28T11:44:30.677Z,4.00
2017-11-28T11:46:58.106Z,3.50
2017-11-28T11:49:25.530Z,3.03
2017-11-28T11:51:52.989Z,3.17
2017-11-28T11:54:20.386Z,2.40
2017-11-28T11:56:47.815Z,3.50
2017-11-28T11:59:15.293Z,4.60
2017-11-28T12:01:42.722Z,3.70
2017-11-28T12:04:10.139Z,4.80
2017-11-28T12:06:37.575Z,4.37
2017-11-28T12:09:04.990Z,3.23
2017-11-28T12:11:32.447Z,3.10
2017-11-28T12:13:59.865Z,3.37
2017-11-28T12:16:27.311Z,3.90
2017-11-28T12:18:54.738Z,3.43
2017-11-28T12:21:22.917Z,3.77
2017-11-28T12:23:50.351Z,3.60
2017-11-28T12:26:17.775Z,2.70
2017-11-28T12:28:45.215Z,2.20
2017-11-28T12:31:12.628Z,2.90
2017-11-28T12:33:40.826Z,3.07
2017-11-28T12:36:08.251Z,2.80
2017-11-28T12:38:35.686Z,3.30
2017-11-28T12:41:03.119Z,2.60
2017-11-28T12:43:30.551Z,2.83
2017-11-28T12:45:57.970Z,3.50
2017-11-28T12:48:25.409Z,3.30
2017-11-28T12:50:52.833Z,3.03
2017-11-28T12:53:20.249Z,2.90
2017-11-28T12:55:48.572Z,2.80
2017-11-28T12:58:15.978Z,3.00
2017-11-28T13:00:44.179Z,2.70
2017-11-28T13:03:11.599Z,3.70
2017-11-28T13:05:39.040Z,2.90
2017-11-28T13:08:06.449Z,2.90
2017-11-28T13:10:33.890Z,3.37
2017-11-28T13:13:02.079Z,3.90
2017-11-28T13:15:29.515Z,3.40
2017-11-28T13:17:56.942Z,2.80
2017-11-28T13:20:24.376Z,2.70
2017-11-28T13:22:51.820Z,3.30
2017-11-28T13:25:19.244Z,3.07
2017-11-28T13:27:46.670Z,3.43
2017-11-28T13:30:14.118Z,2.60
2017-11-28T13:32:41.583Z,3.40
2017-11-28T13:35:08.999Z,3.30
2017-11-28T13:37:36.480Z,3.27
2017-11-28T13:40:03.905Z,2.60
2017-11-28T13:42:31.330Z,3.00
2017-11-28T13:44:58.772Z,2.70
2017-11-28T13:47:26.186Z,2.80
2017-11-28T13:49:53.606Z,2.80
2017-11-28T13:52:21.043Z,2.87
2017-11-28T13:54:48.472Z,2.93
2017-11-28T13:57:15.900Z,3.70
2017-11-28T13:59:43.321Z,3.53
2017-11-28T14:02:10.764Z,4.27
2017-11-28T14:04:38.967Z,3.63
2017-11-28T14:07:06.393Z,3.40
2017-11-28T14:09:33.830Z,3.40
2017-11-28T14:12:01.247Z,3.50
2017-11-28T14:14:28.695Z,3.50
2017-11-28T14:16:56.121Z,3.30
2017-11-28T14:19:25.193Z,3.40
2017-11-28T14:24:58.833Z,2.87
2017-11-28T14:27:31.841Z,2.70
2017-11-28T14:30:00.976Z,2.63
2017-11-28T14:32:34.074Z,3.50
2017-11-28T14:35:01.946Z,3.50
2017-11-28T14:37:29.367Z,2.53
2017-11-28T14:39:56.799Z,3.10
2017-11-28T14:42:40.999Z,3.70
2017-11-28T14:45:08.430Z,3.40
2017-11-28T14:47:35.845Z,3.43
2017-11-28T14:50:03.290Z,3.53
2017-11-28T14:52:32.612Z,2.73
2017-11-28T14:55:05.762Z,3.30
2017-11-28T14:57:34.634Z,3.57
2017-11-28T15:00:07.770Z,4.20
2017-11-28T15:02:40.910Z,2.10
2017-11-28T15:08:32.792Z,3.20
2017-11-28T15:11:02.992Z,3.28
2017-11-28T15:13:47.214Z,2.87
2017-11-28T15:16:33.065Z,4.18
2017-11-28T15:19:06.227Z,2.87
2017-11-28T15:21:36.449Z,2.90
2017-11-28T15:24:06.289Z,2.87
2017-11-28T15:26:35.322Z,3.28
2017-11-28T15:29:03.297Z,3.05
2017-11-28T15:31:30.736Z,3.27
2017-11-28T15:33:58.162Z,2.85
2017-11-28T15:36:25.611Z,3.17
2017-11-28T15:38:53.039Z,3.07
2017-11-28T15:41:20.467Z,3.60
2017-11-28T15:43:47.926Z,3.40
2017-11-28T15:46:15.348Z,3.40
2017-11-28T15:48:42.783Z,3.70
2017-11-28T15:51:10.207Z,3.67
2017-11-28T15:53:37.647Z,3.17
2017-11-28T15:56:05.077Z,3.60
2017-11-28T15:58:32.509Z,5.18
2017-11-28T16:01:00.713Z,3.55
2017-11-28T16:03:28.154Z,3.67
2017-11-28T16:05:55.578Z,3.83
2017-11-28T16:08:23.011Z,4.80
2017-11-28T16:10:51.407Z,4.80
2017-11-28T16:13:18.782Z,3.53
2017-11-28T16:15:46.985Z,3.50
2017-11-28T16:18:14.413Z,3.60
2017-11-28T16:20:42.629Z,4.25
2017-11-28T16:23:10.059Z,5.12
2017-11-28T16:25:37.501Z,4.10
2017-11-28T16:28:04.939Z,4.12
2017-11-28T16:30:32.396Z,5.62
2017-11-28T16:32:59.805Z,5.78
2017-11-28T16:35:27.261Z,5.75
2017-11-28T16:37:54.924Z,6.05
2017-11-28T16:40:22.363Z,3.85
2017-11-28T16:42:49.795Z,5.75
2017-11-28T16:45:17.988Z,6.07
2017-11-28T16:47:45.414Z,7.70
2017-11-28T16:50:12.841Z,6.78
2017-11-28T16:52:40.302Z,6.75
2017-11-28T16:55:07.728Z,6.43
2017-11-28T16:57:35.163Z,5.20
2017-11-28T17:00:02.597Z,9.10
2017-11-28T17:02:30.831Z,12.60
2017-11-28T17:04:58.246Z,7.72
2017-11-28T17:07:25.678Z,7.18
2017-11-28T17:09:53.110Z,6.53
2017-11-28T17:12:20.555Z,4.15
2017-11-28T17:14:47.982Z,4.18
2017-11-28T17:17:15.409Z,3.53
2017-11-28T17:19:43.592Z,3.40
2017-11-28T17:22:11.030Z,5.00
2017-11-28T17:24:38.455Z,8.07
2017-11-28T17:27:05.897Z,5.78
2017-11-28T17:29:33.318Z,4.18
2017-11-28T17:32:00.762Z,3.70
2017-11-28T17:34:28.971Z,3.40
2017-11-28T17:36:56.459Z,3.75
2017-11-28T17:39:26.692Z,4.30
2017-11-28T17:41:54.555Z,6.37
2017-11-28T17:44:22.011Z,5.28
2017-11-28T17:46:49.442Z,5.40
2017-11-28T17:49:16.947Z,4.00
2017-11-28T17:51:44.367Z,5.50
2017-11-28T17:54:11.793Z,4.15
2017-11-28T17:56:39.222Z,4.30
2017-11-28T17:59:06.676Z,3.30
2017-11-28T18:01:34.088Z,3.90
2017-11-28T18:04:01.531Z,3.05
2017-11-28T18:06:29.046Z,4.05
2017-11-28T18:08:56.462Z,6.43
2017-11-28T18:11:23.898Z,4.90
2017-11-28T18:13:51.345Z,5.50
2017-11-28T18:18:51.604Z,6.10
2017-11-28T18:21:19.198Z,5.40
2017-11-28T18:23:46.630Z,5.53
2017-11-28T18:26:14.074Z,4.47
2017-11-28T18:28:41.507Z,6.12
2017-11-28T18:31:08.931Z,5.82
2017-11-28T18:33:37.151Z,7.47
2017-11-28T18:36:04.844Z,9.20
2017-11-28T18:38:32.404Z,8.55
2017-11-28T18:40:59.839Z,8.45
2017-11-28T18:43:27.523Z,9.77
2017-11-28T18:45:55.762Z,10.32
2017-11-28T18:48:23.628Z,10.63
2017-11-28T18:50:51.066Z,10.73
2017-11-28T18:53:18.521Z,9.65
2017-11-28T18:55:45.955Z,8.77
2017-11-28T18:58:14.157Z,9.57
2017-11-28T19:00:41.577Z,8.20
2017-11-28T19:03:09.041Z,19.08
2017-11-28T19:05:36.477Z,14.18
2017-11-28T19:08:03.966Z,7.62
2017-11-28T19:10:31.398Z,8.00
2017-11-28T19:12:58.884Z,7.00
2017-11-28T19:15:26.334Z,10.55
2017-11-28T19:17:53.787Z,11.60
2017-11-28T19:20:21.217Z,7.45
2017-11-28T19:22:48.652Z,8.60
2017-11-28T19:25:16.171Z,7.70
2017-11-28T19:27:43.722Z,9.20
2017-11-28T19:30:11.149Z,8.52
2017-11-28T19:32:38.646Z,8.27
2017-11-28T19:35:06.205Z,8.05
2017-11-28T19:37:33.639Z,7.32
2017-11-28T19:40:01.939Z,7.43
2017-11-28T19:42:29.531Z,7.15
2017-11-28T19:44:56.962Z,9.00
2017-11-28T19:47:24.395Z,7.60
2017-11-28T19:49:52.275Z,8.15
2017-11-28T19:52:19.681Z,6.95
2017-11-28T19:54:47.868Z,7.65
2017-11-28T20:10:21.192Z,10.80
2017-11-28T20:12:48.653Z,10.40
2017-11-28T20:15:16.081Z,9.63
2017-11-28T20:17:43.525Z,9.95
2017-11-28T20:20:10.961Z,10.13
2017-11-28T20:22:38.394Z,11.20
2017-11-28T20:25:05.827Z,9.68
2017-11-28T20:27:33.287Z,8.80
2017-11-28T20:30:00.720Z,11.65
2017-11-28T20:32:28.161Z,10.30
2017-11-28T20:34:55.651Z,9.00
2017-11-28T20:37:23.090Z,9.13
2017-11-28T20:39:50.513Z,9.02
2017-11-28T20:42:17.937Z,8.85
2017-11-28T20:44:45.382Z,10.00
2017-11-28T20:47:12.808Z,8.55
2017-11-28T20:49:40.243Z,8.70
2017-11-28T20:52:08.450Z,8.40
2017-11-28T20:54:35.881Z,8.30
2017-11-28T20:57:03.314Z,8.15
2017-11-28T20:59:30.745Z,9.30
2017-11-28T21:01:58.170Z,7.82
2017-11-28T21:04:25.611Z,8.98
2017-11-28T21:06:53.029Z,8.90
2017-11-28T21:09:20.474Z,9.23
2017-11-28T21:11:47.916Z,8.85
2017-11-28T21:14:15.354Z,8.50
2017-11-28T21:16:42.782Z,7.85
2017-11-28T21:19:10.214Z,8.73
2017-11-28T21:21:38.834Z,8.05
2017-11-28T21:24:06.269Z,8.30
2017-11-28T21:26:33.715Z,8.70
2017-11-28T21:29:01.154Z,8.38
2017-11-28T21:31:28.589Z,7.30
2017-11-28T21:33:56.006Z,8.15
2017-11-28T21:36:23.446Z,6.70
2017-11-28T21:38:51.651Z,6.80
2017-11-28T21:41:19.087Z,6.90
2017-11-28T21:43:46.515Z,6.68
2017-11-28T21:46:14.724Z,7.15
2017-11-28T21:48:42.157Z,8.10
2017-11-28T21:51:09.593Z,8.10
2017-11-28T21:53:37.022Z,9.73
2017-11-28T21:56:04.464Z,8.00
2017-11-28T21:58:31.898Z,6.87
2017-11-28T22:00:59.335Z,5.53
2017-11-28T22:03:26.760Z,6.12
2017-11-28T22:05:54.216Z,5.62
2017-11-28T22:08:21.660Z,4.65
2017-11-28T22:10:49.083Z,5.15
2017-11-28T22:13:16.583Z,7.40
2017-11-28T22:15:44.007Z,5.40
2017-11-28T22:18:11.444Z,5.78
2017-11-28T22:20:38.867Z,5.68
2017-11-28T22:23:06.298Z,5.85
2017-11-28T22:25:33.718Z,5.22
2017-11-28T22:28:01.154Z,5.47
2017-11-28T22:30:28.587Z,3.80
2017-11-28T22:32:56.055Z,3.35
2017-11-28T22:35:23.478Z,3.58
2017-11-28T22:37:50.913Z,2.85
2017-11-28T22:40:18.341Z,2.00
2017-11-28T22:42:45.782Z,3.28
2017-11-28T22:45:13.211Z,2.70
2017-11-28T22:47:40.662Z,3.17
2017-11-28T22:50:08.087Z,3.37
2017-11-28T22:52:35.516Z,3.30
2017-11-28T22:55:03.723Z,4.25
2017-11-28T22:57:31.137Z,4.40
2017-11-28T22:59:58.574Z,3.70
2017-11-28T23:02:26.006Z,4.50
2017-11-28T23:04:53.467Z,4.47
2017-11-28T23:07:20.906Z,4.85
2017-11-28T23:09:48.347Z,4.47
2017-11-28T23:12:15.766Z,4.25
2017-11-28T23:14:53.861Z,4.70
2017-11-28T23:17:21.288Z,4.20
2017-11-28T23:19:48.948Z,4.05
2017-11-28T23:22:16.349Z,3.90
2017-11-28T23:24:44.550Z,3.90
2017-11-28T23:27:11.974Z,3.60
2017-11-28T23:29:39.413Z,3.90
2017-11-28T23:32:06.842Z,4.40
2017-11-28T23:34:34.273Z,3.33
2017-11-28T23:37:01.702Z,3.42
2017-11-28T23:39:29.898Z,3.42
2017-11-28T23:41:57.324Z,3.50
2017-11-28T23:44:25.687Z,3.62
2017-11-28T23:46:53.125Z,3.17
2017-11-28T23:49:20.562Z,3.60
2017-11-28T23:51:48.000Z,3.60
2017-11-28T23:54:15.422Z,2.30
2017-11-28T23:56:42.854Z,2.62
2017-11-28T23:59:10.290Z,3.40
